Tiempo atmosférico en la estación meteorológica de Fuerteventura Aeropuerto, Las Palmas (25 m.)



Fecha
DESCASC
Temp. máxima en grados centígrados (hora)
DESCASC
Temp. mínima en grados centígrados (hora)
DESCASC
Temp. media en grados centígrados
DESCASC
Racha de viento máxima en m/sg (hora)
DESCASC
Velocidad máxima media en intervalos de 10 minutos(hora)
DESCASC
Precipitaciones diarias en mm
DESCASC
Precipitaciones de 00:00 a 06:00 en mm
DESCASC
Precipitaciones de 06:00 a 12:00 en mm
DESCASC
Precipitaciones de 12:00 a 18:00 en mm
DESCASC
Precipitaciones de 18:00 a 24:00 en mm
DESCASC
26-09-2019 -- (--) -- (--) -- -- (--) -- (--) -- 0 -- -- 0
14-10-2019 25.1 (14:50) 18.7 (00:00) 21.9 10.83 (21:00) 8.61 (21:40) 0 0 0 0 0
13-10-2019 25.3 (14:10) 18.7 (00:00) 22 7.78 (09:20) 4.17 (13:30) 0 0 0 0 0
11-10-2019 25.3 (14:40) 18.9 (00:00) 22.1 8.33 (20:10) 5.28 (20:30) 0 0 0 0 0
12-10-2019 25.2 (14:50) 19.6 (00:00) 22.4 11.67 (18:10) 9.17 (18:20) 0 0 0 0 0
17-10-2019 25.5 (14:00) 19.5 (00:00) 22.5 9.17 (10:20) 7.22 (11:30) 0 0 0 0 0
16-10-2019 25.2 (12:40) 19.9 (00:00) 22.6 10.28 (01:30) 8.33 (01:40) 0.2 0 0 0.2 0
15-10-2019 24.8 (13:00) 21.1 (00:00) 22.9 10.83 (03:30) 8.61 (03:30) 0 0 0 0 0
21-09-2019 26.8 (17:10) 19.1 (00:00) 22.9 12.5 (18:30) 9.17 (18:30) 0 0 0 0 0
09-10-2019 25.5 (14:50) 20.2 (00:00) 22.9 10.28 (08:20) 7.78 (10:50) 0 0 0 0 0
10-10-2019 25.6 (15:00) 20.7 (00:00) 23.2 6.67 (11:20) 5 (11:20) 0 0 0 0 0
08-10-2019 25.2 (13:10) 21.5 (00:00) 23.4 9.17 (00:10) 7.22 (00:20) 0 0 0 0 0
07-10-2019 25.5 (15:30) 21.6 (00:00) 23.6 11.39 (01:40) 8.61 (01:40) 0 0 0 0 0
28-09-2019 25.8 (14:00) 21.6 (00:00) 23.7 10.83 (07:00) 8.61 (07:00) 0 0 0 0 0
20-09-2019 26.1 (14:30) 21.4 (00:00) 23.8 10.28 (17:20) 8.61 (17:30) 0 0 0 0 0
02-10-2019 26.4 (15:10) 21.2 (00:00) 23.8 9.72 (08:00) 7.5 (08:00) 0 0 0 0 0
05-10-2019 26.3 (14:40) 21.4 (00:00) 23.8 14.44 (15:30) 11.39 (18:00) 0 0 0 0 0
19-09-2019 26.4 (14:30) 21.4 (00:00) 23.9 10.83 (00:30) 8.61 (00:50) 0 0 0 0 0
04-10-2019 26.5 (15:00) 21.4 (00:00) 23.9 13.33 (09:40) 10.56 (09:40) 0 0 0 0 0
25-09-2019 27 (14:30) 20.9 (00:00) 23.9 11.67 (20:10) 9.17 (21:10) 0 0 0 0 0
18-09-2019 26.4 (13:50) 21.6 (00:00) 24 10.83 (04:50) 8.33 (22:00) 0 0 0 0 0
06-10-2019 26 (13:40) 22.2 (00:00) 24.1 12.5 (00:20) 10.28 (03:20) 0 0 0 0 0
29-09-2019 26.1 (14:40) 22 (00:00) 24.1 11.39 (08:30) 8.61 (01:40) 0 0 0 0 0
27-09-2019 26.1 (13:50) 22.4 (00:00) 24.3 10.28 (01:10) 8.33 (21:40) 0 0 0 0 0
24-09-2019 26.7 (14:40) 21.9 (00:00) 24.3 11.67 (07:00) 9.44 (15:50) 0 0 0 0 0
23-09-2019 26.5 (12:50) 22.1 (00:00) 24.3 11.67 (22:10) 9.17 (21:50) 0 0 0 0 0
22-09-2019 28.1 (14:00) 20.9 (00:00) 24.5 9.17 (14:10) 7.22 (23:50) 0 0 0 0 0
01-10-2019 27.6 (13:20) 21.5 (00:00) 24.6 11.67 (13:10) 9.17 (13:00) 0 0 0 0 0
03-10-2019 28 (13:30) 21.6 (00:00) 24.8 12.78 (18:10) 9.44 (14:40) 0 0 0 0 0
30-09-2019 30.9 (18:30) 22 (00:00) 26.4 14.44 (19:00) 7.22 (18:40) 0 0 0 0 0

Gráficas

Temp. máximas Temp. mínimas Temp. medias Precipitaciones Rachas de viento máximas Velocidades máximas media en intervalos de 10 minutos

Datos horarios

Fecha y hora oficial Temperatura (ºC) Velocidad del viento (km/h) Dirección del viento Racha (km/h) Dirección de racha Precipitación (mm) Presión (hPa) Tendencia (hPa) Humedad (%)
2019-10-17 23:00:00 21.7 14 Norte 26 Norte 0 1017.4 1.2 73
2019-10-17 22:00:00 21.7 15 Norte 26 Norte 0 1017.1 1 72
2019-10-17 21:00:00 22 22 Nordeste 28 Nordeste 0 1016.8 0.6 76
2019-10-17 20:00:00 22.1 22 Nordeste 28 Nordeste 0 1016.2 -0.2 73
2019-10-17 19:00:00 22.7 21 Nordeste 28 Nordeste 0 1016.1 -0.4 69
2019-10-17 18:00:00 23.6 24 Nordeste 32 Nordeste 0 1016.2 -0.5 62
2019-10-17 17:00:00 24.4 22 Nordeste 30 Nordeste 0 1016.4 -1.2 61
2019-10-17 16:00:00 24.6 22 Nordeste 28 Nordeste 0 1016.5 -1.8 59
2019-10-17 15:00:00 24.5 17 Nordeste 26 Nordeste 0 1016.7 -1.8 57
2019-10-17 14:00:00 25.1 19 Nordeste 30 Nordeste 0 1017.6 -0.8 50
2019-10-17 13:00:00 24.9 24 Nordeste 32 Nordeste 0 1018.3 -0.1 50
2019-10-17 12:00:00 24.2 26 Nordeste 33 Norte 0 1018.5 0.8 61
2019-10-17 11:00:00 23.7 26 Nordeste 33 Nordeste 0 1018.4 1.3 65
2019-10-17 10:00:00 22.4 20 Norte 28 Norte 0 1018.4 1.6 65
2019-10-17 09:00:00 20.5 14 Noroeste 30 Noroeste 0 1017.7 1.4 72
2019-10-17 08:00:00 19.6 15 Norte 28 Noroeste 0 1017.1 0.8 77
2019-10-17 07:00:00 19.7 13 Noroeste 17 Noroeste 0 1016.8 0.3 79
2019-10-17 06:00:00 20.4 13 Norte 17 Norte 0 1016.3 -0.7 79
2019-10-17 05:00:00 20.5 13 Norte 22 Norte 0 1016.3 -1.4 78
2019-10-17 04:00:00 20.7 17 Norte 24 Norte 0 1016.5 -1.7 78
2019-10-17 03:00:00 21 16 Norte 26 Norte 0 1017 -1.8 77
2019-10-17 02:00:00 21.4 19 Nordeste 28 Nordeste 0 1017.7 -1 75
2019-10-17 01:00:00 21.8 17 Norte 24 Norte 0 1018.2 0.1 73
2019-10-17 00:00:00 22.1 16 Nordeste 22 Nordeste 0 1018.8 1.1 76
2019-10-16 23:00:00 22.1 14 Nordeste 21 Nordeste 0 1018.7 2 72
2019-10-16 22:00:00 22.1 13 Nordeste 17 Nordeste 0 1018.1 1.7 72
2019-10-16 21:00:00 22.1 11 Norte 21 Nordeste 0 1017.7 1.6 70
2019-10-16 20:00:00 22.1 13 Nordeste 21 Nordeste 0 1016.7 0.3 70
2019-10-16 19:00:00 22.5 14 Norte 21 Nordeste 0 1016.4 -0.2 70
2019-10-16 18:00:00 23 16 Nordeste 22 Nordeste 0 1016.1 -1 69
2019-10-16 17:00:00 23.5 17 Nordeste 24 Nordeste 0 1016.4 -1.1 69
2019-10-16 16:00:00 22.7 18 Nordeste 26 Nordeste 0.2 1016.6 -1.8 76
2019-10-16 15:00:00 23.4 15 Nordeste 28 Nordeste 0 1017.1 -1 71
2019-10-16 14:00:00 24.6 17 Nordeste 24 Nordeste 0 1017.5 -0.7 65
2019-10-16 13:00:00 25 18 Nordeste 32 Nordeste 0 1018.4 0.5 62
2019-10-16 12:00:00 24.5 26 Nordeste 33 Nordeste 0 1018.1 1 65
2019-10-16 11:00:00 23.8 26 Nordeste 33 Nordeste 0 1018.2 1.4 67
2019-10-16 10:00:00 22.5 24 Norte 32 Nordeste 0 1017.9 1.3 74
2019-10-16 09:00:00 21.2 19 Norte 24 Norte 0 1017.1 0.6 78
2019-10-16 08:00:00 19.9 14 Norte 18 Norte 0 1016.8 0.2 78
2019-10-16 07:00:00 20.1 12 Noroeste 17 Norte 0 1016.6 0.1 78
2019-10-16 06:00:00 20.2 12 Norte 17 Norte 0 1016.5 -0.5 78
2019-10-16 05:00:00 20.6 14 Noroeste 28 Norte 0 1016.6 -0.4 76
2019-10-16 04:00:00 21.3 21 Norte 30 Nordeste 0 1016.5 -1.1 75
2019-10-16 03:00:00 21.4 24 Norte 33 Nordeste 0 1017 -1.3 77
2019-10-16 02:00:00 21.7 28 Nordeste 37 Nordeste 0 1017 -1.5 77
2019-10-16 01:00:00 21.7 28 Nordeste 33 Nordeste 0 1017.6 -0.5 75
2019-10-16 00:00:00 21.9 23 Nordeste 30 Nordeste 0 1018.3 0.6 74
2019-10-15 23:00:00 22.1 23 Nordeste 32 Nordeste 0 1018.5 1.2 74
2019-10-15 22:00:00 22.1 24 Nordeste 33 Nordeste 0 1018.1 1.2 73
2019-10-15 21:00:00 22.1 24 Nordeste 32 Nordeste 0 1017.7 1.1 71
2019-10-15 20:00:00 22.1 27 Nordeste 37 Nordeste 0 1017.3 0.9 69
2019-10-15 19:00:00 22.7 29 Nordeste 37 Nordeste 0 1016.9 0.1 65
2019-10-15 18:00:00 23.6 25 Nordeste 35 Nordeste 0 1016.6 -1 62
2019-10-15 17:00:00 24 26 Nordeste 35 Nordeste 0 1016.4 -1.7 59
2019-10-15 16:00:00 24.4 21 Nordeste 28 Nordeste 0 1016.8 -1.8 57
2019-10-15 15:00:00 24.2 18 Nordeste 28 Este 0 1017.6 -1.2 55
2019-10-15 14:00:00 24.3 18 Nordeste 26 Nordeste 0 1018.1 -0.5 57
2019-10-15 13:00:00 24.5 20 Nordeste 28 Nordeste 0 1018.6 0.3 53
2019-10-15 12:00:00 24.1 23 Nordeste 30 Nordeste 0 1018.8 1.2 58
2019-10-15 11:00:00 23.6 22 Nordeste 30 Nordeste 0 1018.6 1.4 62
2019-10-15 10:00:00 23.1 25 Nordeste 33 Nordeste 0 1018.3 1.2 64
2019-10-15 09:00:00 21.9 25 Nordeste 35 Nordeste 0 1017.6 0.9 69
2019-10-15 08:00:00 21.5 27 Nordeste 35 Nordeste 0 1017.2 0.5 76
2019-10-15 07:00:00 21.3 26 Nordeste 35 Nordeste 0 1017.1 0.1 76
2019-10-15 06:00:00 21.3 28 Nordeste 35 Nordeste 0 1016.7 -0.6 72
2019-10-15 05:00:00 21.3 28 Nordeste 39 Nordeste 0 1016.7 -0.9 75
2019-10-15 04:00:00 21.3 27 Nordeste 39 Nordeste 0 1017 -1 75
2019-10-15 03:00:00 21.4 29 Nordeste 37 Nordeste 0 1017.3 -1.2 74
2019-10-15 02:00:00 21.6 28 Nordeste 37 Nordeste 0 1017.6 -0.8 77
2019-10-15 01:00:00 21.7 28 Nordeste 35 Nordeste 0 1018 -0.1 78
2019-10-15 00:00:00 21.7 27 Nordeste 35 Norte 0 1018.5 1 76
2019-10-14 23:00:00 21.8 28 Nordeste 35 Nordeste 0 1018.4 1.4 77
2019-10-14 22:00:00 22.1 27 Nordeste 39 Nordeste 0 1018.1 1.6 79
2019-10-14 21:00:00 22.4 29 Nordeste 39 Nordeste 0 1017.5 1.1 78
2019-10-14 20:00:00 22.8 27 Nordeste 35 Este 0 1017 0.4 76
2019-10-14 19:00:00 23.3 24 Nordeste 30 Nordeste 0 1016.5 0 74
2019-10-14 18:00:00 24.1 21 Nordeste 30 Nordeste 0 1016.4 -0.4 73
2019-10-14 17:00:00 24.5 23 Nordeste 32 Nordeste 0 1016.6 -0.6 73
2019-10-14 16:00:00 24.6 24 Nordeste 32 Nordeste 0 1016.5 -1.4 72
2019-10-14 15:00:00 24.8 20 Nordeste 26 Nordeste 0 1016.8 -0.9 69
2019-10-14 14:00:00 24.6 15 Nordeste 22 Nordeste 0 1017.2 -0.2 71
2019-10-14 13:00:00 24.3 14 Este 21 Este 0 1017.9 0.9 72
2019-10-14 12:00:00 23.8 15 Nordeste 22 Nordeste 0 1017.7 1.2 74
2019-10-14 11:00:00 23.4 14 Nordeste 18 Nordeste 0 1017.4 1.4 79
2019-10-14 10:00:00 22.7 13 Nordeste 18 Norte 0 1017 1.4 80
2019-10-14 09:00:00 21.2 11 Norte 15 Noroeste 0 1016.5 1.3 82
2019-10-14 08:00:00 19.1 9 Noroeste 21 Noroeste 0 1016 1 82
2019-10-14 07:00:00 18.7 12 Noroeste 15 Noroeste 0 1015.6 0.5 81
2019-10-14 06:00:00 19 10 Noroeste 15 Noroeste 0 1015.2 0.1 81
2019-10-14 05:00:00 19.4 11 Oeste 13 Noroeste 0 1015 -0.5 78
2019-10-14 04:00:00 19.9 9 Noroeste 13 Norte 0 1015.1 -0.8 74
2019-10-14 03:00:00 19.6 7 Norte 17 Noroeste 0 1015.1 -1 72
2019-10-14 02:00:00 19.8 13 Oeste 17 Noroeste 0 1015.5 -0.5 71
2019-10-14 01:00:00 20.3 10 Oeste 13 Oeste 0 1015.9 0.2 69
2019-10-14 00:00:00 20.8 10 Noroeste 13 Noroeste 0 1016.1 1.2 66
2019-10-13 23:00:00 21.4 8 Noroeste 26 Oeste 0 1016 1.7 62
2019-10-13 22:00:00 22.4 6 Norte 24 Oeste 0 1015.7 1.7 65
2019-10-13 21:00:00 22.6 5 Sudoeste 9 Sudeste 0 1014.9 1.8 67
2019-10-13 20:00:00 23.1 5 Sudeste 15 Sur 0 1014.3 1.2 66
2019-10-13 19:00:00 23.8 11 Sudeste 17 Sudeste 0 1014 1 64
2019-10-13 18:00:00 24.2 10 Sudeste 15 Este 0 1013.1 0.1 62
2019-10-13 17:00:00 24.6 10 Este 17 Sudeste 0 1013.1 -0.2 59
2019-10-13 16:00:00 24.5 10 Sudeste 18 Sudeste 0 1013 -0.6 59
2019-10-13 15:00:00 24.6 13 Este 21 Este 0 1013 -0.6 58
2019-10-13 14:00:00 24.9 15 Este 21 Este 0 1013.3 0.1 56
2019-10-13 13:00:00 24.8 13 Este 21 Este 0 1013.6 0.6 57
2019-10-13 12:00:00 24.3 12 Este 18 Este 0 1013.6 1.1 58
2019-10-13 11:00:00 23.5 11 Este 15 Este 0 1013.2 1 60
2019-10-13 10:00:00 22.3 5 Oeste 28 Oeste 0 1013 1.1 66
2019-10-13 09:00:00 20.6 10 Oeste 24 Noroeste 0 1012.5 1.1 76
2019-10-13 08:00:00 19.3 13 Noroeste 26 Oeste 0 1012.2 1.1 81
2019-10-13 07:00:00 18.9 13 Oeste 15 Oeste 0 1011.9 0.3 83
2019-10-13 06:00:00 20.3 12 Noroeste 15 Noroeste 0 1011.4 -0.4 81
2019-10-13 05:00:00 20 10 Noroeste 15 Noroeste 0 1011.1 -1.1 80
2019-10-13 04:00:00 20.5 12 Noroeste 17 Noroeste 0 1011.6 -1.1 79
2019-10-13 03:00:00 20.8 13 Noroeste 18 Noroeste 0 1011.8 -1.1 78
2019-10-13 02:00:00 21.6 11 Norte 15 Norte 0 1012.2 -0.7 76
2019-10-13 01:00:00 21.2 9 Norte 17 Noroeste 0 1012.7 0.3 75
2019-10-13 00:00:00 21.8 13 Noroeste 18 Noroeste 0 1012.9 0.9 73
2019-10-12 23:00:00 22.1 13 Norte 18 Norte 0 1012.9 1.5 75
2019-10-12 22:00:00 22.5 14 Nordeste 24 Nordeste 0 1012.4 1.1 81
2019-10-12 21:00:00 22.6 19 Nordeste 30 Norte 0 1012 0.7 81
2019-10-12 20:00:00 23.5 24 Norte 33 Norte 0 1011.4 0 66
2019-10-12 19:00:00 23.9 28 Nordeste 42 Nordeste 0 1011.3 0 75
2019-10-12 18:00:00 25 28 Nordeste 39 Nordeste 0 1011.3 -0.3 67
2019-10-12 17:00:00 24.9 17 Nordeste 24 Nordeste 0 1011.4 -0.9 68
2019-10-12 16:00:00 25 17 Nordeste 22 Nordeste 0 1011.3 -2 66
2019-10-12 15:00:00 24.8 14 Nordeste 24 Nordeste 0 1011.6 -2.3 67
2019-10-12 14:00:00 24.6 19 Este 24 Este 0 1012.3 -2 70
2019-10-12 13:00:00 24.6 12 Nordeste 17 Este 0 1013.3 -0.6 69
2019-10-12 12:00:00 23.9 12 Nordeste 21 Nordeste 0 1013.9 0.5 71
2019-10-12 11:00:00 23.7 14 Nordeste 21 Nordeste 0 1014.3 1.3 72
2019-10-12 10:00:00 22.6 15 Norte 21 Norte 0 1013.9 1.2 75
2019-10-12 09:00:00 20.7 11 Noroeste 26 Noroeste 0 1013.4 0.7 81
2019-10-12 08:00:00 19.7 13 Noroeste 17 Noroeste 0 1013 0.5 83
2019-10-12 07:00:00 19.9 12 Noroeste 15 Norte 0 1012.7 -0.1 83
2019-10-12 06:00:00 20.3 14 Norte 18 Norte 0 1012.7 -0.3 83
2019-10-12 05:00:00 20.5 14 Norte 17 Norte 0 1012.5 -1 82
2019-10-12 04:00:00 20.7 13 Norte 17 Norte 0 1012.8 -1.1 81
2019-10-12 03:00:00 20.9 13 Norte 15 Norte 0 1013 -1.1 79
2019-10-12 02:00:00 21.1 12 Norte 15 Norte 0 1013.5 -0.6 76
2019-10-12 01:00:00 21.6 12 Noroeste 15 Noroeste 0 1013.9 0.2 75
2019-10-12 00:00:00 21.8 11 Norte 15 Norte 0 1014.1 1.1 74
2019-10-11 23:00:00 22.2 11 Norte 17 Noroeste 0 1014.1 1.7 71
2019-10-11 22:00:00 22.8 11 Norte 21 Noroeste 0 1013.7 1.6 68
2019-10-11 21:00:00 23.5 14 Norte 30 Noroeste 0 1013 1.2 64
2019-10-11 20:00:00 24.3 17 Norte 28 Noroeste 0 1012.4 0.4 60
2019-10-11 19:00:00 24.9 8 Sudoeste 17 Sudoeste 0 1012.1 -0.2 65
2019-10-11 18:00:00 24.4 13 Sudeste 18 Sudeste 0 1011.8 -0.8 69
2019-10-11 17:00:00 24.7 11 Este 17 Este 0 1012 -1.1 66
2019-10-11 16:00:00 24.9 12 Este 18 Este 0 1012.3 -1.7 65
2019-10-11 15:00:00 25.1 14 Este 21 Este 0 1012.6 -2 63
2019-10-11 14:00:00 24.8 14 Este 21 Este 0 1013.1 -1.5 63
2019-10-11 13:00:00 24.6 16 Este 22 Nordeste 0 1014 -0.4 65
2019-10-11 12:00:00 24.4 15 Nordeste 21 Nordeste 0 1014.6 0.6 67
2019-10-11 11:00:00 23.9 12 Nordeste 18 Nordeste 0 1014.6 1.2 71
2019-10-11 10:00:00 22.9 12 Norte 17 Norte 0 1014.4 1.5 71
2019-10-11 09:00:00 20.1 6 Oeste 22 Oeste 0 1014 1.5 80
2019-10-11 08:00:00 19.3 0 Calma 15 Noroeste 0 1013.4 1.1 80
2019-10-11 07:00:00 19.4 9 Noroeste 13 Noroeste 0 1012.9 0.5 80
2019-10-11 06:00:00 19.5 10 Noroeste 13 Noroeste 0 1012.5 -0.1 81
2019-10-11 05:00:00 19.8 6 Noroeste 15 Noroeste 0 1012.3 -0.7 79
2019-10-11 04:00:00 20.8 13 Noroeste 17 Noroeste 0 1012.4 -0.8 78
2019-10-11 03:00:00 20.8 12 Noroeste 15 Noroeste 0 1012.6 -1.2 79
2019-10-11 02:00:00 21.2 8 Oeste 11 Oeste 0 1013 -0.7 80
2019-10-11 01:00:00 22 11 Norte 13 Norte 0 1013.2 -0.2 80
2019-10-11 00:00:00 22.4 6 Norte 9 Norte 0 1013.8 1.2 80
2019-10-10 23:00:00 22.5 6 Nordeste 9 Nordeste 0 1013.7 1.5 80
2019-10-10 22:00:00 22.8 4 Nordeste 11 Nordeste 0 1013.4 1.7 81
2019-10-10 21:00:00 22.9 7 Nordeste 9 Nordeste 0 1012.6 0.8 80
2019-10-10 20:00:00 23 5 Nordeste 11 Nordeste 0 1012.2 0.7 80
2019-10-10 19:00:00 23.4 10 Nordeste 15 Nordeste 0 1011.7 0.2 78
2019-10-10 18:00:00 23.9 11 Nordeste 17 Nordeste 0 1011.8 -0.1 74
2019-10-10 17:00:00 24.2 12 Nordeste 17 Este 0 1011.5 -1 72
2019-10-10 16:00:00 24.9 12 Este 21 Nordeste 0 1011.5 -1.8 69
2019-10-10 15:00:00 25.3 14 Este 22 Este 0 1011.9 -1.7 63
2019-10-10 14:00:00 25.1 15 Este 22 Este 0 1012.5 -1.2 66
2019-10-10 13:00:00 25.1 14 Este 24 Este 0 1013.3 -0.1 67
2019-10-10 12:00:00 24.9 17 Nordeste 24 Nordeste 0 1013.6 0.7 67
2019-10-10 11:00:00 24.4 16 Nordeste 21 Nordeste 0 1013.7 1.3 67
2019-10-10 10:00:00 23.8 14 Nordeste 18 Nordeste 0 1013.4 1.6 72
2019-10-10 09:00:00 22.1 11 Norte 22 Noroeste 0 1012.9 1.2 74
2019-10-10 08:00:00 20.9 12 Noroeste 22 Noroeste 0 1012.4 0.9 73
2019-10-10 07:00:00 21 14 Noroeste 17 Noroeste 0 1011.8 -0.2 71
2019-10-10 06:00:00 21.5 14 Noroeste 18 Noroeste 0 1011.7 -0.9 69
2019-10-10 05:00:00 21.8 15 Noroeste 18 Noroeste 0 1011.5 -1.6 71
2019-10-10 04:00:00 22.1 14 Norte 18 Norte 0 1012 -1.6 75
2019-10-10 03:00:00 22.5 11 Norte 13 Norte 0 1012.6 -1.3 72
2019-10-10 02:00:00 22.4 10 Noroeste 13 Norte 0 1013.1 -0.8 73
2019-10-10 01:00:00 22.5 8 Norte 17 Nordeste 0 1013.6 0.4 73
2019-10-10 00:00:00 22.6 17 Norte 28 Norte 0 1013.9 0.9 73
2019-10-09 23:00:00 22.3 15 Norte 22 Norte 0 1013.9 1.4 75
2019-10-09 22:00:00 22.8 15 Norte 30 Nordeste 0 1013.2 1 76
2019-10-09 21:00:00 23 19 Nordeste 26 Norte 0 1013 0.8 76
2019-10-09 20:00:00 23 22 Nordeste 28 Nordeste 0 1012.5 0.1 75
2019-10-09 19:00:00 23.5 24 Nordeste 30 Nordeste 0 1012.2 -0.3 72
2019-10-09 18:00:00 24.2 22 Nordeste 30 Nordeste 0 1012.2 0 70
2019-10-09 17:00:00 24.7 18 Nordeste 26 Este 0 1012.4 -0.1 68
2019-10-09 16:00:00 25 18 Nordeste 28 Nordeste 0 1012.5 -0.6 67
2019-10-09 15:00:00 25.2 21 Nordeste 28 Nordeste 0 1012.2 -1.5 66
2019-10-09 14:00:00 24.6 21 Nordeste 28 Nordeste 0 1012.5 -1 67
2019-10-09 13:00:00 25.1 20 Nordeste 26 Nordeste 0 1013.1 -0.3 65
2019-10-09 12:00:00 24.2 19 Nordeste 30 Nordeste 0 1013.7 0.6 66
2019-10-09 11:00:00 23.6 27 Nordeste 35 Nordeste 0 1013.5 0.9 67
2019-10-09 10:00:00 22.6 23 Norte 30 Norte 0 1013.4 0.7 70
2019-10-09 09:00:00 20.8 14 Norte 37 Norte 0 1013.1 0.4 78
2019-10-09 08:00:00 20.5 20 Norte 26 Norte 0 1012.6 0 78
2019-10-09 07:00:00 20.5 15 Norte 24 Norte 0 1012.7 0.2 79
2019-10-09 06:00:00 20.8 18 Norte 24 Norte 0 1012.7 -0.1 79
2019-10-09 05:00:00 20.6 13 Norte 22 Noroeste 0 1012.6 -0.5 78
2019-10-09 04:00:00 21.4 19 Norte 26 Norte 0 1012.5 -1.1 76
2019-10-09 03:00:00 21.5 18 Norte 22 Norte 0 1012.8 -0.9 78
2019-10-09 02:00:00 21.7 12 Norte 21 Norte 0 1013.1 -0.7 79
2019-10-09 01:00:00 21.5 11 Noroeste 21 Norte 0 1013.6 0.4 79
2019-10-09 00:00:00 21.9 15 Norte 22 Norte 0 1013.7 1.5 78
2019-10-08 23:00:00 22.1 18 Norte 22 Norte 0 1013.8 1.6 78
2019-10-08 22:00:00 22.6 17 Nordeste 30 Nordeste 0 1013.2 1 83
2019-10-08 21:00:00 22.4 23 Nordeste 32 Nordeste 0 1012.2 0.2 84
2019-10-08 20:00:00 22.6 22 Nordeste 28 Nordeste 0 1012.2 0.1 83
2019-10-08 19:00:00 23.4 21 Nordeste 28 Nordeste 0 1012.2 0 79
2019-10-08 18:00:00 24.1 18 Nordeste 24 Nordeste 0 1012 -0.4 75
2019-10-08 17:00:00 24.4 19 Nordeste 26 Nordeste 0 1012.1 -0.9 73
2019-10-08 16:00:00 24.5 19 Nordeste 26 Nordeste 0 1012.2 -1.3 71
2019-10-08 15:00:00 24.7 19 Nordeste 28 Nordeste 0 1012.4 -1.4 70
2019-10-08 14:00:00 24.9 22 Nordeste 28 Nordeste 0 1013 -1.2 71
2019-10-08 13:00:00 24.8 22 Nordeste 30 Nordeste 0 1013.5 -0.6 70
2019-10-08 12:00:00 24.4 22 Nordeste 32 Nordeste 0 1013.8 0.4 71
2019-10-08 11:00:00 23.7 19 Nordeste 28 Nordeste 0 1014.2 1.2 74
2019-10-08 10:00:00 22.5 19 Norte 26 Norte 0 1014.1 1.4 77
2019-10-08 09:00:00 21.9 15 Norte 28 Norte 0 1013.4 1.2 79
2019-10-08 08:00:00 21.6 16 Norte 28 Norte 0 1013 1 80
2019-10-08 07:00:00 21.7 15 Norte 24 Norte 0 1012.7 0.5 80
2019-10-08 06:00:00 21.8 17 Norte 30 Nordeste 0 1012.2 -0.5 84
2019-10-08 05:00:00 21.8 20 Nordeste 28 Nordeste 0 1012 -0.9 83
2019-10-08 04:00:00 21.9 22 Norte 30 Norte 0 1012.2 -1.3 84
2019-10-08 03:00:00 21.9 22 Nordeste 28 Nordeste 0 1012.7 -1.2 85
2019-10-08 02:00:00 22 22 Nordeste 30 Nordeste 0 1012.9 -1 85
2019-10-08 01:00:00 22.1 24 Nordeste 33 Nordeste 0 1013.5 0.1 85
2019-10-08 00:00:00 22.2 26 Nordeste 33 Nordeste 0 1013.9 1.1 85
2019-10-07 23:00:00 22.4 25 Nordeste 35 Nordeste 0 1013.9 1.7 86
2019-10-07 22:00:00 22.7 28 Nordeste 35 Nordeste 0 1013.4 1.3 85
2019-10-07 21:00:00 22.9 23 Nordeste 30 Nordeste 0 1012.8 0.7 87
2019-10-07 20:00:00 23 24 Nordeste 30 Nordeste 0 1012.2 -0.2 86
2019-10-07 19:00:00 23.5 22 Nordeste 30 Nordeste 0 1012.1 -0.3 81
2019-10-07 18:00:00 24.3 22 Nordeste 28 Nordeste 0 1012.1 -0.4 76
2019-10-07 17:00:00 24.8 22 Nordeste 28 Nordeste 0 1012.4 -0.7 74
2019-10-07 16:00:00 25.2 22 Nordeste 28 Nordeste 0 1012.4 -1.6 72
2019-10-07 15:00:00 25.2 22 Nordeste 30 Nordeste 0 1012.5 -2.1 69
2019-10-07 14:00:00 24.9 21 Nordeste 26 Nordeste 0 1013.1 -1.8 69
2019-10-07 13:00:00 24.6 18 Nordeste 26 Nordeste 0 1014 0 69
2019-10-07 12:00:00 24.1 18 Nordeste 28 Nordeste 0 1014.6 1.1 72
2019-10-07 11:00:00 23.4 19 Nordeste 32 Nordeste 0 1014.9 1.9 76
2019-10-07 10:00:00 22.6 24 Nordeste 33 Nordeste 0 1014 1.1 77
2019-10-07 09:00:00 22.2 26 Nordeste 32 Nordeste 0 1013.5 1 78
2019-10-07 08:00:00 21.9 22 Norte 32 Norte 0 1013 0.7 78
2019-10-07 07:00:00 21.7 26 Norte 37 Nordeste 0 1012.9 0.4 78
2019-10-07 06:00:00 21.8 26 Nordeste 37 Nordeste 0 1012.5 -0.4 78
2019-10-07 05:00:00 21.8 26 Nordeste 37 Nordeste 0 1012.3 -1.2 78
2019-10-07 04:00:00 22.1 24 Norte 35 Norte 0 1012.5 -1.7 78
2019-10-07 03:00:00 22.2 27 Norte 41 Nordeste 0 1012.9 -1.7 78
2019-10-07 02:00:00 22.3 27 Norte 41 Norte 0 1013.5 -1.2 77
2019-10-07 01:00:00 22.4 27 Nordeste 39 Nordeste 0 1014.2 -0.2 78
2019-10-07 00:00:00 22.5 28 Nordeste 39 Nordeste 0 1014.6 0.7 78
2019-10-06 23:00:00 22.5 33 Nordeste 41 Nordeste 0 1014.7 0.9 78
2019-10-06 22:00:00 22.6 32 Nordeste 45 Nordeste 0 1014.4 0.7 79
2019-10-06 21:00:00 22.7 32 Nordeste 41 Nordeste 0 1013.9 0.1 80
2019-10-06 20:00:00 22.6 31 Nordeste 41 Nordeste 0 1013.8 0.1 79
2019-10-06 19:00:00 23.1 28 Nordeste 39 Nordeste 0 1013.7 -0.1 77
2019-10-06 18:00:00 24.2 28 Nordeste 37 Nordeste 0 1013.8 -0.2 74
2019-10-06 17:00:00 24.9 28 Nordeste 35 Nordeste 0 1013.7 -0.6 72
2019-10-06 16:00:00 25.7 26 Nordeste 35 Nordeste 0 1013.8 -1.1 67
2019-10-06 15:00:00 25.4 27 Nordeste 37 Nordeste 0 1014 -0.9 70
2019-10-06 14:00:00 25.4 28 Nordeste 37 Nordeste 0 1014.3 -0.6 68
2019-10-06 13:00:00 25.3 29 Nordeste 39 Nordeste 0 1014.9 0.3 67
2019-10-06 12:00:00 24.7 30 Nordeste 39 Nordeste 0 1014.9 0.7 68
2019-10-06 11:00:00 24.2 31 Nordeste 41 Nordeste 0 1014.9 1.6 70
2019-10-06 10:00:00 23.1 29 Nordeste 37 Norte 0 1014.6 1.7 75
2019-10-06 09:00:00 22.4 31 Norte 42 Nordeste 0 1014.2 1.6 77
2019-10-06 08:00:00 22.3 31 Norte 42 Nordeste 0 1013.3 0.6 79
2019-10-06 07:00:00 22.4 32 Norte 41 Norte 0 1012.9 -0.1 78
2019-10-06 06:00:00 22.4 27 Norte 41 Norte 0 1012.6 -0.7 78
2019-10-06 05:00:00 22.6 27 Norte 42 Nordeste 0 1012.7 -1 78
2019-10-06 04:00:00 22.8 32 Norte 45 Norte 0 1013 -0.8 75
2019-10-06 03:00:00 22.9 35 Nordeste 45 Norte 0 1013.3 -0.8 78
2019-10-06 02:00:00 22.8 33 Nordeste 45 Nordeste 0 1013.7 -0.4 79
2019-10-06 01:00:00 22.8 35 Nordeste 45 Nordeste 0 1013.8 0.1 78
2019-10-06 00:00:00 22.7 36 Nordeste 48 Norte 0 1014.1 0.9 76
2019-10-05 23:00:00 22.9 34 Norte 48 Nordeste 0 1014.1 1.6 78
2019-10-05 22:00:00 23.1 37 Nordeste 46 Nordeste 0 1013.7 1.7 81
2019-10-05 21:00:00 23.1 35 Nordeste 46 Nordeste 0 1013.2 1.3 82
2019-10-05 20:00:00 23.2 37 Nordeste 48 Nordeste 0 1012.5 0.8 82
2019-10-05 19:00:00 24 39 Nordeste 52 Nordeste 0 1012 0 78
2019-10-05 18:00:00 24.7 41 Nordeste 52 Nordeste 0 1011.9 -0.2 74
2019-10-05 17:00:00 25.6 37 Nordeste 52 Nordeste 0 1011.7 -1 72
2019-10-05 16:00:00 25.7 40 Nordeste 52 Nordeste 0 1012 -1.4 71
2019-10-05 15:00:00 25.9 37 Nordeste 48 Nordeste 0 1012.1 -1.4 70
2019-10-05 14:00:00 25.9 37 Nordeste 50 Nordeste 0 1012.7 -0.3 70
2019-10-05 13:00:00 25.8 39 Nordeste 50 Nordeste 0 1013.4 0.8 71
2019-10-05 12:00:00 25.3 37 Nordeste 48 Nordeste 0 1013.5 1.4 73
2019-10-05 11:00:00 25 32 Nordeste 42 Nordeste 0 1013 1.5 74
2019-10-05 10:00:00 24 36 Nordeste 46 Nordeste 0 1012.6 1.4 78
2019-10-05 09:00:00 22.8 40 Norte 50 Norte 0 1012.1 1.2 83
2019-10-05 08:00:00 22.1 31 Norte 48 Norte 0 1011.5 0.5 87
2019-10-05 07:00:00 22.2 37 Norte 46 Norte 0 1011.2 -0.1 87
2019-10-05 06:00:00 21.5 23 Norte 39 Norte 0 1010.9 -0.8 87
2019-10-05 05:00:00 21.7 23 Norte 42 Norte 0 1011 -1 86
2019-10-05 04:00:00 22.1 34 Norte 42 Norte 0 1011.3 -1 85
2019-10-05 03:00:00 22.1 30 Norte 45 Norte 0 1011.7 -1.2 84
2019-10-05 02:00:00 22.2 33 Norte 42 Norte 0 1012 -1 84
2019-10-05 01:00:00 22.4 35 Nordeste 45 Nordeste 0 1012.3 -0.5 83
2019-10-05 00:00:00 22.1 23 Norte 32 Norte 0 1012.9 0.5 79
2019-10-04 23:00:00 22.5 26 Norte 35 Norte 0 1013 1 77
2019-10-04 22:00:00 22.8 27 Norte 41 Norte 0 1012.8 1.1 77
2019-10-04 21:00:00 23.5 26 Norte 35 Norte 0 1012.4 0.9 73
2019-10-04 20:00:00 24.4 26 Norte 37 Norte 0 1012 0.4 70
2019-10-04 19:00:00 25.2 28 Nordeste 37 Nordeste 0 1011.7 -0.3 73
2019-10-04 18:00:00 25.3 32 Nordeste 42 Nordeste 0 1011.5 -0.9 76
2019-10-04 17:00:00 25.3 35 Nordeste 42 Nordeste 0 1011.6 -1.9 75
2019-10-04 16:00:00 25.9 31 Nordeste 42 Nordeste 0 1012 -2.4 71
2019-10-04 15:00:00 26 32 Nordeste 45 Nordeste 0 1012.4 -2.2 69
2019-10-04 14:00:00 25.8 32 Nordeste 42 Nordeste 0 1013.5 -1.3 71
2019-10-04 13:00:00 25.1 32 Nordeste 45 Nordeste 0 1014.4 -0.2 73
2019-10-04 12:00:00 25.4 34 Nordeste 45 Nordeste 0 1014.6 0.3 72
2019-10-04 11:00:00 24.7 33 Nordeste 45 Nordeste 0 1014.8 1 73
2019-10-04 10:00:00 23.8 33 Nordeste 48 Nordeste 0 1014.6 1.2 76
2019-10-04 09:00:00 22.5 21 Norte 32 Norte 0 1014.3 1.3 82
2019-10-04 08:00:00 21.5 22 Norte 30 Norte 0 1013.8 0.8 85
2019-10-04 07:00:00 21.7 18 Norte 35 Norte 0 1013.4 0.2 83
2019-10-04 06:00:00 21.7 22 Norte 35 Norte 0 1013 -0.6 83
2019-10-04 05:00:00 21.8 25 Norte 37 Norte 0 1013 -0.9 84
2019-10-04 04:00:00 22 23 Norte 37 Norte 0 1013.2 -1.1 83
2019-10-04 03:00:00 22.2 27 Norte 33 Norte 0 1013.6 -0.8 81
2019-10-04 02:00:00 22.7 26 Norte 35 Norte 0 1013.9 -0.6 78
2019-10-04 01:00:00 22.5 20 Norte 28 Norte 0 1014.3 -0.1 78
2019-10-04 00:00:00 22.8 19 Norte 26 Norte 0 1014.4 0.4 75
2019-10-03 23:00:00 23.1 22 Norte 37 Norte 0 1014.5 0.5 75
2019-10-03 22:00:00 23.5 26 Norte 33 Norte 0 1014.4 0.5 74
2019-10-03 21:00:00 24 24 Norte 35 Norte 0 1014 -0.2 73
2019-10-03 20:00:00 24.7 28 Norte 41 Norte 0 1014 -0.5 70
2019-10-03 19:00:00 26.5 30 Norte 46 Norte 0 1013.9 -0.6 63
2019-10-03 18:00:00 27.6 34 Norte 45 Norte 0 1014.2 -0.6 60
2019-10-03 17:00:00 26.5 23 Nordeste 39 Nordeste 0 1014.5 -0.9 73
2019-10-03 16:00:00 26.3 29 Nordeste 41 Nordeste 0 1014.5 -1.3 74
2019-10-03 15:00:00 26.5 32 Nordeste 42 Nordeste 0 1014.8 -1.6 73
2019-10-03 14:00:00 26.5 31 Nordeste 41 Nordeste 0 1015.4 -1.6 74
2019-10-03 13:00:00 26.6 21 Nordeste 33 Nordeste 0 1015.8 -0.8 73
2019-10-03 12:00:00 26.1 30 Nordeste 39 Nordeste 0 1016.4 0.2 71
2019-10-03 11:00:00 25.2 28 Nordeste 35 Nordeste 0 1017 1.5 75
2019-10-03 10:00:00 24.9 28 Nordeste 35 Nordeste 0 1016.6 1.4 75
2019-10-03 09:00:00 24 18 Norte 26 Norte 0 1016.2 1.3 71
2019-10-03 08:00:00 22.1 15 Norte 24 Noroeste 0 1015.5 0.7 68
2019-10-03 07:00:00 21.9 16 Norte 21 Noroeste 0 1015.2 0.2 70
2019-10-03 06:00:00 22.3 12 Norte 22 Norte 0 1014.9 -0.5 78
2019-10-03 05:00:00 22.5 17 Norte 26 Norte 0 1014.8 -0.8 75
2019-10-03 04:00:00 22.3 14 Norte 24 Norte 0 1015 -0.8 80
2019-10-03 03:00:00 23.1 18 Norte 33 Norte 0 1015.4 -0.8 79
2019-10-03 02:00:00 23.4 22 Norte 32 Norte 0 1015.6 -0.5 76
2019-10-03 01:00:00 23.5 18 Norte 28 Norte 0 1015.8 0.4 74
2019-10-03 00:00:00 23.3 14 Norte 21 Norte 0 1016.2 1.4 73
2019-10-02 23:00:00 23 11 Norte -- -- 0 1016.1 1.8 76
2019-10-02 22:00:00 23.8 10 Norte 18 Norte 0 1015.4 1.4 76
2019-10-02 21:00:00 24.3 15 Norte 32 Norte 0 1014.8 0.6 73
2019-10-02 20:00:00 24.7 21 Norte 32 Norte 0 1014.3 -0.1 72
2019-10-02 19:00:00 25 16 Norte 24 Norte 0 1014 -0.7 76
2019-10-02 18:00:00 25.5 18 Norte 28 Norte 0 1014.2 -0.8 75
2019-10-02 17:00:00 25.4 18 Nordeste 30 Norte 0 1014.4 -0.9 77
2019-10-02 16:00:00 25.9 16 Norte 28 Nordeste 0 1014.7 -0.9 74
2019-10-02 15:00:00 25.9 19 Norte 30 Nordeste 0 1015 -0.8 75
2019-10-02 14:00:00 25.8 19 Nordeste 30 Nordeste 0 1015.3 -0.5 77
2019-10-02 13:00:00 25.4 23 Nordeste 28 Nordeste 0 1015.6 0.2 78
2019-10-02 12:00:00 25 20 Nordeste 30 Norte 0 1015.8 1.1 80
2019-10-02 11:00:00 24.4 25 Norte 33 Norte 0 1015.8 1.6 81
2019-10-02 10:00:00 23.1 24 Nordeste 33 Nordeste 0 1015.4 1.5 86
2019-10-02 09:00:00 22.5 26 Nordeste 33 Nordeste 0 1014.7 1.2 90
2019-10-02 08:00:00 21.8 27 Norte 35 Nordeste 0 1014.2 0.8 92
2019-10-02 07:00:00 21.6 23 Norte 32 Norte 0 1013.9 0.2 92
2019-10-02 06:00:00 21.4 18 Norte 28 Norte 0 1013.5 -0.6 92
2019-10-02 05:00:00 21.8 21 Norte 30 Norte 0 1013.4 -1.3 92
2019-10-02 04:00:00 21.9 21 Norte 28 Norte 0 1013.7 -1.2 92
2019-10-02 03:00:00 21.9 21 Norte 28 Norte 0 1014.1 -1.3 92
2019-10-02 02:00:00 22.1 20 Norte 26 Norte 0 1014.7 -0.7 91
2019-10-02 01:00:00 22.4 21 Norte 26 Norte 0 1014.9 -0.2 90
2019-10-02 00:00:00 22.6 21 Norte 30 Norte 0 1015.4 1.1 89
2019-10-01 23:00:00 22.9 23 Norte 32 Norte 0 1015.4 1.6 90
2019-10-01 22:00:00 23.2 25 Norte 33 Norte 0 1015.1 1.5 89
2019-10-01 21:00:00 23.7 19 Norte 30 Norte 0 1014.3 0.9 81
2019-10-01 20:00:00 24.1 25 Nordeste 35 Nordeste 0 1013.8 0.3 79
2019-10-01 19:00:00 24.8 21 Norte 33 Norte 0 1013.6 0 79
2019-10-01 18:00:00 25.4 22 Norte 32 Norte 0 1013.4 -0.5 77
2019-10-01 17:00:00 25.9 23 Nordeste 32 Nordeste 0 1013.5 -0.8 76
2019-10-01 16:00:00 26.3 26 Nordeste 41 Nordeste 0 1013.6 -1 76
2019-10-01 15:00:00 26.7 28 Norte 41 Norte 0 1013.9 -0.9 72
2019-10-01 14:00:00 26.8 30 Norte 42 Norte 0 1014.3 -0.5 71
2019-10-01 13:00:00 27 33 Nordeste 41 Nordeste 0 1014.6 0.6 68
2019-10-01 12:00:00 26.6 25 Norte 33 Norte 0 1014.8 1.7 68
2019-10-01 11:00:00 25.9 18 Norte 24 Norte 0 1014.8 2.6 65
2019-10-01 10:00:00 24.7 17 Norte 26 Norte 0 1014 2.1 70
2019-10-01 09:00:00 21.8 10 Norte 15 Norte 0 1013.1 1.6 88
2019-10-01 08:00:00 21.7 9 Norte 17 Norte 0 1012.2 0.7 91
2019-10-01 07:00:00 21.9 14 Norte 18 Norte 0 1011.9 0.4 91
2019-10-01 06:00:00 21.9 13 Norte 22 Norte 0 1011.5 -0.7 90
2019-10-01 05:00:00 22.1 17 Norte 32 Norte 0 1011.5 -1.1 90
2019-10-01 04:00:00 22.4 21 Norte 32 Norte 0 1011.5 -1.6 89
2019-10-01 03:00:00 22.8 22 Norte 30 Norte 0 1012.2 -1.3 89
2019-10-01 02:00:00 22.7 24 Nordeste 37 Nordeste 0 1012.6 -0.6 90
2019-10-01 01:00:00 22.9 31 Nordeste 41 Nordeste 0 1013.1 0.8 90
2019-10-01 00:00:00 23.1 21 Nordeste 32 Nordeste 0 1013.5 2.3 91
2019-09-30 23:00:00 23.6 11 Nordeste 17 Nordeste 0 1013.2 3 88
2019-09-30 22:00:00 24.1 10 Nordeste 18 Nordeste 0 1012.3 2.9 88
2019-09-30 21:00:00 24.6 12 Nordeste 32 Nordeste 0 1011.2 1.6 85
2019-09-30 20:00:00 27.8 16 Norte 39 Oeste 0 1010.2 0.2 63
2019-09-30 19:00:00 29.9 26 Oeste 52 Oeste 0 1009.4 -0.6 56
2019-09-30 18:00:00 26.8 20 Nordeste 33 Nordeste 0 1009.6 -1 77
2019-09-30 17:00:00 27 19 Nordeste 26 Nordeste 0 1010 -1.4 75
2019-09-30 16:00:00 26.6 17 Nordeste 28 Nordeste 0 1010 -2.1 73
2019-09-30 15:00:00 26.9 24 Nordeste 33 Norte 0 1010.6 -1.4 71
2019-09-30 14:00:00 27.1 19 Norte 30 Norte 0 1011.4 -0.3 71
2019-09-30 13:00:00 27.5 24 Norte 32 Norte 0 1012.1 0.9 67
2019-09-30 12:00:00 27.4 18 Nordeste 28 Norte 0 1012 1.5 61
2019-09-30 11:00:00 26.2 15 Nordeste 22 Nordeste 0 1011.7 1.6 72
2019-09-30 10:00:00 26.4 18 Nordeste 24 Nordeste 0 1011.2 1.5 66
2019-09-30 09:00:00 25.8 12 Norte 28 Noroeste 0 1010.5 1.4 56
2019-09-30 08:00:00 25.4 17 Noroeste 30 Norte 0 1010.1 0.4 48
2019-09-30 07:00:00 25.5 19 Norte 28 Norte 0 1009.7 -0.1 44
2019-09-30 06:00:00 24.8 20 Norte 30 Norte 0 1009.1 -1.4 49
2019-09-30 05:00:00 24.1 19 Norte 26 Norte 0 1009.7 -1.9 54
2019-09-30 04:00:00 23.2 20 Norte 30 Norte 0 1009.8 -2.5 63
2019-09-30 03:00:00 23.1 23 Norte 32 Norte 0 1010.5 -2.1 64
2019-09-30 02:00:00 22.8 15 Norte 28 Norte 0 1011.6 -0.7 65
2019-09-30 01:00:00 22.2 14 Norte 18 Norte 0 1012.3 0 75
2019-09-30 00:00:00 22.7 16 Norte 28 Norte 0 1012.6 1 78
2019-09-29 23:00:00 22.6 16 Norte 28 Norte 0 1012.3 1.5 90
2019-09-29 22:00:00 22.9 18 Norte 32 Nordeste 0 1012.3 1.8 89
2019-09-29 21:00:00 23.1 25 Nordeste 35 Nordeste 0 1011.6 0.5 89
2019-09-29 20:00:00 23.3 28 Nordeste 35 Nordeste 0 1010.8 -0.8 88
2019-09-29 19:00:00 24 26 Nordeste 37 Nordeste 0 1010.5 -1.2 84
2019-09-29 18:00:00 24.6 28 Nordeste 37 Norte 0 1011.1 -1.6 79
2019-09-29 17:00:00 25.3 25 Nordeste 37 Nordeste 0 1011.6 -1.8 76
2019-09-29 16:00:00 25.5 29 Norte 35 Norte 0 1011.7 -1.8 75
2019-09-29 15:00:00 25.5 22 Nordeste 35 Nordeste 0 1012.7 -1.6 75
2019-09-29 14:00:00 25.2 23 Nordeste 37 Nordeste 0 1013.4 -1.3 75
2019-09-29 13:00:00 25.1 29 Nordeste 35 Norte 0 1013.5 -0.5 73
2019-09-29 12:00:00 24.4 28 Nordeste 35 Norte 0 1014.3 0.5 76
2019-09-29 11:00:00 23.4 21 Nordeste 37 Nordeste 0 1014.7 1.4 79
2019-09-29 10:00:00 22.9 26 Nordeste 37 Nordeste 0 1014 1.1 81
2019-09-29 09:00:00 22.4 28 Nordeste 41 Norte 0 1013.8 1.1 84
2019-09-29 08:00:00 22.2 26 Nordeste 37 Nordeste 0 1013.3 0.3 83
2019-09-29 07:00:00 22.2 30 Nordeste 37 Nordeste 0 1012.9 -0.3 85
2019-09-29 06:00:00 22.2 28 Nordeste 37 Nordeste 0 1012.7 -1 86
2019-09-29 05:00:00 22.1 30 Nordeste 37 Nordeste 0 1013 -1.1 85
2019-09-29 04:00:00 22.1 28 Nordeste 37 Nordeste 0 1013.2 -1.3 86
2019-09-29 03:00:00 22.2 28 Nordeste 35 Nordeste 0 1013.7 -0.9 87
2019-09-29 02:00:00 22.2 30 Nordeste 39 Nordeste 0 1014.1 -0.7 87
2019-09-29 01:00:00 22.3 28 Nordeste 37 Nordeste 0 1014.5 -0.1 86
2019-09-29 00:00:00 22.5 27 Nordeste 33 Nordeste 0 1014.6 0.5 86
2019-09-28 23:00:00 22.7 24 Nordeste 30 Nordeste 0 1014.8 1 85
2019-09-28 22:00:00 22.9 17 Norte 28 Nordeste 0 1014.6 0.9 80
2019-09-28 21:00:00 23.2 24 Nordeste 32 Nordeste 0 1014.1 0.3 85
2019-09-28 20:00:00 23.2 27 Nordeste 32 Nordeste 0 1013.8 0 83
2019-09-28 19:00:00 23.9 23 Nordeste 30 Nordeste 0 1013.7 -0.3 77
2019-09-28 18:00:00 24.6 23 Nordeste 30 Nordeste 0 1013.8 -0.9 75
2019-09-28 17:00:00 24.9 21 Nordeste 26 Nordeste 0 1013.8 -1.5 71
2019-09-28 16:00:00 25.4 22 Nordeste 30 Nordeste 0 1014 -1.8 69
2019-09-28 15:00:00 25.4 23 Nordeste 30 Norte 0 1014.7 -1.5 67
2019-09-28 14:00:00 25.4 23 Nordeste 32 Nordeste 0 1015.3 -1.1 67
2019-09-28 13:00:00 25 25 Nordeste 33 Nordeste 0 1015.8 -0.2 68
2019-09-28 12:00:00 24.3 24 Nordeste 35 Nordeste 0 1016.2 0.8 71
2019-09-28 11:00:00 23.3 25 Nordeste 32 Nordeste 0 1016.4 1.7 78
2019-09-28 10:00:00 23 23 Nordeste 32 Nordeste 0 1016 1.8 79
2019-09-28 09:00:00 22.5 22 Nordeste 33 Norte 0 1015.4 1.3 81
2019-09-28 08:00:00 21.7 23 Norte 35 Norte 0 1014.7 0.6 84
2019-09-28 07:00:00 21.8 31 Norte 39 Norte 0 1014.2 -0.4 83
2019-09-28 06:00:00 21.7 23 Norte 32 Nordeste 0 1014.1 -0.9 84
2019-09-28 05:00:00 21.8 23 Norte 30 Nordeste 0 1014.1 -1 83
2019-09-28 04:00:00 22 24 Norte 30 Nordeste 0 1014.6 -1.1 83
2019-09-28 03:00:00 22 20 Norte 33 Nordeste 0 1015 -1.2 82
2019-09-28 02:00:00 22.3 27 Nordeste 35 Norte 0 1015.1 -1.2 82
2019-09-28 01:00:00 22.6 29 Norte 35 Nordeste 0 1015.7 0 79
2019-09-28 00:00:00 22.9 23 Norte 35 Nordeste 0 1016.2 1.2 82
2019-09-27 23:00:00 23.1 29 Nordeste 37 Nordeste 0 1016.3 1.7 80
2019-09-27 22:00:00 23.2 29 Nordeste 37 Nordeste 0 1015.7 1.1 81
2019-09-27 21:00:00 23.3 27 Nordeste 37 Nordeste 0 1015 0.4 83
2019-09-27 20:00:00 23.4 27 Nordeste 33 Nordeste 0 1014.6 -0.1 81
2019-09-27 19:00:00 24.1 26 Nordeste 33 Nordeste 0 1014.6 -0.1 78
2019-09-27 18:00:00 24.8 26 Nordeste 32 Nordeste 0 1014.6 -0.6 72
2019-09-27 17:00:00 25.3 23 Nordeste 30 Nordeste 0 1014.7 -0.8 70
2019-09-27 16:00:00 25.5 23 Nordeste 30 Nordeste 0 1014.7 -1.6 68
2019-09-27 15:00:00 25.7 23 Nordeste 30 Nordeste 0 1015.2 -1.3 68
2019-09-27 14:00:00 25.8 26 Nordeste 32 Nordeste 0 1015.5 -0.9 67
2019-09-27 13:00:00 25.6 23 Nordeste 32 Nordeste 0 1016.3 -0.2 70
2019-09-27 12:00:00 25.2 26 Nordeste 35 Nordeste 0 1016.5 0.5 70
2019-09-27 11:00:00 24.6 27 Nordeste 35 Norte 0 1016.4 0.8 71
2019-09-27 10:00:00 23.9 28 Nordeste 35 Nordeste 0 1016.5 1.2 74
2019-09-27 09:00:00 23.1 26 Nordeste 33 Norte 0 1016 0.9 78
2019-09-27 08:00:00 22.4 21 Norte 30 Norte 0 1015.6 0.8 79
2019-09-27 07:00:00 22.6 26 Norte 35 Norte 0 1015.3 0.4 80
2019-09-27 06:00:00 22.6 22 Norte 32 Norte 0 1015.1 -0.2 80
2019-09-27 05:00:00 22.6 27 Nordeste 35 Norte 0 1014.8 -1.1 80
2019-09-27 04:00:00 22.7 29 Norte 35 Nordeste 0 1014.9 -1.4 79
2019-09-27 03:00:00 22.8 23 Norte 33 Norte 0 1015.3 -1.1 79
2019-09-27 02:00:00 22.6 26 Nordeste 37 Nordeste 0 1015.9 -0.8 80
2019-09-27 01:00:00 22.7 24 Norte 35 Nordeste 0 1016.3 0.2 80
2019-09-27 00:00:00 22.9 24 Nordeste 32 Norte 0 1016.4 1.2 80
2019-09-26 23:00:00 23.2 26 Nordeste 33 Nordeste 0 1016.7 1.9 79
2019-09-26 22:00:00 23.4 26 Nordeste 39 Nordeste 0 1016.1 1.5 83
2019-09-26 21:00:00 23.5 29 Nordeste 39 Nordeste 0 1015.2 0.8 81
2019-09-26 20:00:00 23.6 23 Nordeste 32 Nordeste 0 1014.8 0.5 80
2019-09-26 19:00:00 24.1 23 Nordeste 32 Nordeste 0 1014.6 0.4 79
2019-09-26 18:00:00 24.8 23 Nordeste 32 Nordeste 0 1014.4 -0.5 75
2019-09-26 17:00:00 25.5 24 Nordeste 32 Nordeste 0 1014.3 -0.7 70
2019-09-26 16:00:00 26.1 24 Nordeste 33 Nordeste 0 1014.2 -- 70
2019-09-26 15:00:00 25.9 26 Nordeste 33 Nordeste 0 1014.9 -- 71
2019-09-26 14:00:00 26 25 Nordeste -- -- -- 1015 -- 70
2019-09-26 13:00:00 -- -- -- -- -- -- -- -- --
2019-09-26 12:00:00 -- -- -- -- -- -- -- -- --
2019-09-26 11:00:00 -- -- -- -- -- -- -- -- --
2019-09-26 10:00:00 -- -- -- -- -- -- -- -- --
2019-09-26 09:00:00 -- -- -- -- -- -- -- -- --
2019-09-26 08:00:00 -- -- -- -- -- -- -- -- --
2019-09-26 07:00:00 -- -- -- -- -- -- -- -- --
2019-09-26 06:00:00 23.2 27 Nordeste 35 Norte 0 1013.2 -0.2 83
2019-09-26 05:00:00 23.1 23 Norte 37 Norte 0 1013.1 -0.7 83
2019-09-26 04:00:00 23 26 Nordeste 41 Nordeste 0 1013.3 -0.8 81
2019-09-26 03:00:00 23 28 Nordeste 39 Norte 0 1013.4 -1.2 82
2019-09-26 02:00:00 22.8 29 Nordeste 37 Nordeste 0 1013.8 -0.8 82
2019-09-26 01:00:00 22.9 27 Nordeste 41 Norte 0 1014.1 0 83
2019-09-26 00:00:00 23 28 Nordeste 37 Nordeste 0 1014.6 1.1 84
2019-09-25 23:00:00 23 29 Nordeste 39 Nordeste 0 1014.6 1.6 83
2019-09-25 22:00:00 23.2 29 Nordeste 41 Nordeste 0 1014.1 1 84
2019-09-25 21:00:00 23.6 33 Nordeste 42 Nordeste 0 1013.5 0.6 81
2019-09-25 20:00:00 23.9 31 Nordeste 39 Nordeste 0 1013 0.1 81
2019-09-25 19:00:00 24.6 28 Nordeste 37 Nordeste 0 1013.1 -0.1 78
2019-09-25 18:00:00 25.3 30 Nordeste 37 Nordeste 0 1012.9 -0.7 75
2019-09-25 17:00:00 25.9 30 Nordeste 37 Nordeste 0 1012.9 -1.1 72
2019-09-25 16:00:00 26.2 27 Nordeste 37 Nordeste 0 1013.2 -1.5 70
2019-09-25 15:00:00 26.1 29 Nordeste 37 Nordeste 0 1013.6 -1.5 70
2019-09-25 14:00:00 26.5 28 Nordeste 37 Nordeste 0 1014 -1.2 69
2019-09-25 13:00:00 26.2 27 Nordeste 33 Nordeste 0 1014.7 -0.5 69
2019-09-25 12:00:00 25.8 23 Nordeste 33 Norte 0 1015.1 0.2 70
2019-09-25 11:00:00 25.1 26 Nordeste 35 Nordeste 0 1015.2 0.8 69
2019-09-25 10:00:00 24.2 25 Norte 33 Norte 0 1015.2 1 71
2019-09-25 09:00:00 21.9 20 Norte 28 Norte 0 1014.9 0.7 80
2019-09-25 08:00:00 21 18 Norte 24 Noroeste 0 1014.4 0.4 82
2019-09-25 07:00:00 20.9 16 Norte 22 Norte 0 1014.2 0.1 82
2019-09-25 06:00:00 21 18 Norte 24 Norte 0 1014.2 -0.1 82
2019-09-25 05:00:00 21.1 17 Norte 24 Norte 0 1014 -0.9 80
2019-09-25 04:00:00 21.3 17 Norte 22 Norte 0 1014.1 -1.5 81
2019-09-25 03:00:00 21.5 18 Norte 26 Norte 0 1014.3 -1.5 81
2019-09-25 02:00:00 21.7 19 Norte 24 Norte 0 1014.9 -1.3 79
2019-09-25 01:00:00 22.1 18 Norte 28 Norte 0 1015.6 -0.3 79
2019-09-25 00:00:00 22.6 24 Norte 35 Norte 0 1015.8 0.6 77
2019-09-24 23:00:00 22.6 25 Norte 33 Nordeste 0 1016.2 1.2 78
2019-09-24 22:00:00 22.8 27 Nordeste 35 Nordeste 0 1015.9 1 79
2019-09-24 21:00:00 22.9 30 Nordeste 39 Nordeste 0 1015.2 0.4 81
2019-09-24 20:00:00 23.3 32 Nordeste 39 Nordeste 0 1015 0.1 80
2019-09-24 19:00:00 24.1 33 Nordeste 41 Nordeste 0 1014.9 -0.2 75
2019-09-24 18:00:00 24.9 32 Nordeste 42 Nordeste 0 1014.8 -0.7 71
2019-09-24 17:00:00 25.6 32 Nordeste 41 Nordeste 0 1014.9 -1.2 67
2019-09-24 16:00:00 25.9 31 Nordeste 41 Nordeste 0 1015.1 -1.8 67
2019-09-24 15:00:00 26.1 33 Nordeste 41 Nordeste 0 1015.5 -1.9 63
2019-09-24 14:00:00 26 31 Nordeste 39 Nordeste 0 1016.1 -1.4 64
2019-09-24 13:00:00 26.1 28 Nordeste 37 Nordeste 0 1016.9 0 64
2019-09-24 12:00:00 25.4 27 Nordeste 37 Norte 0 1017.4 1.1 63
2019-09-24 11:00:00 24.1 29 Nordeste 42 Nordeste 0 1017.5 1.9 66
2019-09-24 10:00:00 23.1 28 Nordeste 37 Norte 0 1016.9 1.7 69
2019-09-24 09:00:00 22.6 28 Nordeste 37 Nordeste 0 1016.3 1.3 73
2019-09-24 08:00:00 22.1 30 Nordeste 37 Nordeste 0 1015.6 0.5 76
2019-09-24 07:00:00 22.2 32 Nordeste 42 Norte 0 1015.2 0 75
2019-09-24 06:00:00 22.1 26 Norte 35 Norte 0 1015 -0.6 77
2019-09-24 05:00:00 22.1 26 Norte 39 Norte 0 1015.1 -1 77
2019-09-24 04:00:00 22.2 22 Norte 30 Norte 0 1015.2 -1.2 76
2019-09-24 03:00:00 22.2 28 Norte 35 Norte 0 1015.6 -1.3 78
2019-09-24 02:00:00 22.3 21 Norte 35 Norte 0 1016.1 -1 77
2019-09-24 01:00:00 22.6 24 Norte 33 Norte 0 1016.4 -0.2 79
2019-09-24 00:00:00 22.7 28 Nordeste 37 Nordeste 0 1016.9 0.8 78
2019-09-23 23:00:00 22.9 28 Norte 42 Nordeste 0 1017.1 1.5 78
2019-09-23 22:00:00 23.2 33 Nordeste 41 Norte 0 1016.6 1.2 76
2019-09-23 21:00:00 23.3 31 Nordeste 41 Nordeste 0 1016.1 0.8 79
2019-09-23 20:00:00 23.6 29 Nordeste 41 Nordeste 0 1015.6 0.3 76
2019-09-23 19:00:00 24.5 25 Nordeste 33 Nordeste 0 1015.4 0.1 74
2019-09-23 18:00:00 25.1 27 Nordeste 35 Nordeste 0 1015.3 -0.4 69
2019-09-23 17:00:00 26 28 Nordeste 37 Nordeste 0 1015.3 -0.4 68
2019-09-23 16:00:00 26.1 27 Nordeste 32 Nordeste 0 1015.3 -0.8 64
2019-09-23 15:00:00 26 23 Nordeste 30 Nordeste 0 1015.7 -0.9 65
2019-09-23 14:00:00 26.2 24 Nordeste 33 Nordeste 0 1015.7 -0.8 67
2019-09-23 13:00:00 26.1 25 Nordeste 32 Nordeste 0 1016.1 0 66
2019-09-23 12:00:00 25.6 24 Nordeste 33 Nordeste 0 1016.6 1.1 68
2019-09-23 11:00:00 24.9 28 Nordeste 37 Nordeste 0 1016.5 1.6 67
2019-09-23 10:00:00 24 29 Nordeste 37 Nordeste 0 1016.1 1.2 73
2019-09-23 09:00:00 22.6 16 Norte 32 Noroeste 0 1015.5 1.3 75
2019-09-23 08:00:00 22.2 28 Nordeste 33 Nordeste 0 1014.9 0.8 81
2019-09-23 07:00:00 22.6 27 Norte 37 Norte 0 1014.9 0.7 77
2019-09-23 06:00:00 22.8 21 Norte 32 Norte 0 1014.2 -0.3 80
2019-09-23 05:00:00 23.1 23 Norte 30 Nordeste 0 1014.1 -0.8 80
2019-09-23 04:00:00 23 16 Norte 24 Norte 0 1014.2 -1.1 86
2019-09-23 03:00:00 22.9 18 Nordeste 30 Nordeste 0 1014.5 -1 87
2019-09-23 02:00:00 23.1 23 Nordeste 28 Nordeste 0 1014.9 -0.6 87
2019-09-23 01:00:00 23 23 Nordeste 32 Nordeste 0 1015.3 0.2 87
2019-09-23 00:00:00 23.4 24 Nordeste 32 Nordeste 0 1015.5 1.1 90
2019-09-22 23:00:00 23.5 23 Nordeste 33 Nordeste 0 1015.5 1.6 91
2019-09-22 22:00:00 23.3 16 Nordeste 30 Norte 0 1015.1 1.6 94
2019-09-22 21:00:00 24.3 12 Nordeste 22 Nordeste 0 1014.4 1.2 89
2019-09-22 20:00:00 24.7 15 Nordeste 21 Nordeste 0 1013.9 0.7 83
2019-09-22 19:00:00 25 15 Nordeste 26 Nordeste 0 1013.5 0.1 79
2019-09-22 18:00:00 26.1 19 Nordeste 26 Nordeste 0 1013.2 -0.4 74
2019-09-22 17:00:00 26.4 15 Nordeste 22 Nordeste 0 1013.2 -0.7 74
2019-09-22 16:00:00 26.1 18 Nordeste 28 Este 0 1013.4 -1 72
2019-09-22 15:00:00 26.6 21 Este 33 Nordeste 0 1013.6 -1 74
2019-09-22 14:00:00 27.7 22 Nordeste 32 Este 0 1013.9 -1.2 68
2019-09-22 13:00:00 26.9 23 Nordeste 32 Nordeste 0 1014.4 -0.2 70
2019-09-22 12:00:00 26.1 22 Nordeste 30 Nordeste 0 1014.6 0.5 70
2019-09-22 11:00:00 25.7 21 Nordeste 28 Nordeste 0 1015.1 0.8 74
2019-09-22 10:00:00 24.9 15 Norte 22 Nordeste 0 1014.6 0.7 74
2019-09-22 09:00:00 23.1 10 Norte 22 Noroeste 0 1014.1 0.6 80
2019-09-22 08:00:00 21.8 14 Noroeste 28 Noroeste 0 1014.3 1.3 82
2019-09-22 07:00:00 21.1 5 Noroeste 11 Noroeste 0 1013.9 1 81
2019-09-22 06:00:00 21.5 8 Noroeste 15 Noroeste 0 1013.5 0 80
2019-09-22 05:00:00 21.9 12 Noroeste 17 Noroeste 0 1013 -1 80
2019-09-22 04:00:00 21.9 13 Noroeste 17 Noroeste 0 1012.9 -1.3 80
2019-09-22 03:00:00 21.9 10 Noroeste 11 Noroeste 0 1013.5 -1 79
2019-09-22 02:00:00 22 10 Norte 15 Norte 0 1014 -0.4 78
2019-09-22 01:00:00 22.4 11 Norte 13 Norte 0 1014.2 0.3 78
2019-09-22 00:00:00 22.7 7 Nordeste 15 Nordeste 0 1014.5 1.3 85
2019-09-21 23:00:00 23 13 Nordeste 21 Nordeste 0 1014.4 2 84
2019-09-21 22:00:00 23.4 16 Nordeste 26 Nordeste 0 1013.9 1.8 82
2019-09-21 21:00:00 23.5 21 Nordeste 28 Nordeste 0 1013.2 1.3 82
2019-09-21 20:00:00 23.9 22 Nordeste 33 Nordeste 0 1012.4 0.6 80
2019-09-21 19:00:00 25.1 30 Nordeste 45 Nordeste 0 1012.1 -0.1 76
2019-09-21 18:00:00 25.9 30 Nordeste 42 Nordeste 0 1011.9 -0.7 72
2019-09-21 17:00:00 26.4 24 Nordeste 39 Nordeste 0 1011.8 -1.1 69
2019-09-21 16:00:00 25.5 18 Este 24 Este 0 1012.2 -1.2 71
2019-09-21 15:00:00 25.5 15 Nordeste 22 Este 0 1012.6 -1 70
2019-09-21 14:00:00 25.2 14 Este 21 Este 0 1012.9 -0.8 70
2019-09-21 13:00:00 25.1 16 Este 26 Este 0 1013.4 0 71
2019-09-21 12:00:00 24.8 20 Nordeste 28 Nordeste 0 1013.6 0.8 71
2019-09-21 11:00:00 24.6 22 Nordeste 30 Nordeste 0 1013.7 1.5 75
2019-09-21 10:00:00 23.9 20 Nordeste 26 Nordeste 0 1013.4 1.4 76
2019-09-21 09:00:00 21.7 11 Noroeste 22 Noroeste 0 1012.8 1.1 77
2019-09-21 08:00:00 19.2 10 Noroeste 21 Noroeste 0 1012.2 0.6 83
2019-09-21 07:00:00 19.2 9 Noroeste 13 Noroeste 0 1012 0.3 83
2019-09-21 06:00:00 19.7 8 Oeste 17 Noroeste 0 1011.7 -0.3 82
2019-09-21 05:00:00 20.5 14 Noroeste 17 Noroeste 0 1011.6 -0.6 82
2019-09-21 04:00:00 20.9 13 Noroeste 15 Noroeste 0 1011.7 -0.8 82
2019-09-21 03:00:00 21.4 10 Noroeste 13 Noroeste 0 1012 -1.1 81
2019-09-21 02:00:00 21.8 9 Norte 18 Nordeste 0 1012.2 -0.9 81
2019-09-21 01:00:00 22.1 17 Nordeste 22 Nordeste 0 1012.5 -0.4 82
2019-09-21 00:00:00 22.4 14 Nordeste 22 Nordeste 0 1013.1 0.5 82
2019-09-20 23:00:00 22.7 18 Nordeste 24 Nordeste 0 1013.1 1 83
2019-09-20 22:00:00 22.9 21 Nordeste 28 Nordeste 0 1012.9 1.2 83
2019-09-20 21:00:00 23.2 19 Nordeste 28 Nordeste 0 1012.6 1.4 82
2019-09-20 20:00:00 23.4 21 Nordeste 30 Nordeste 0 1012.1 0.7 83
2019-09-20 19:00:00 24.2 23 Nordeste 35 Nordeste 0 1011.7 -0.3 77
2019-09-20 18:00:00 24.8 28 Nordeste 37 Nordeste 0 1011.2 -1.1 76
2019-09-20 17:00:00 25.3 28 Nordeste 35 Nordeste 0 1011.4 -1.9 72
2019-09-20 16:00:00 25.8 24 Nordeste 32 Nordeste 0 1012 -1.9 69
2019-09-20 15:00:00 25.5 23 Nordeste 30 Nordeste 0 1012.3 -1.7 70
2019-09-20 14:00:00 25.2 19 Este 26 Nordeste 0 1013.3 -1.1 71
2019-09-20 13:00:00 25 17 Este 24 Nordeste 0 1013.9 0.1 71
2019-09-20 12:00:00 25.2 17 Nordeste 22 Nordeste 0 1014 0.9 68
2019-09-20 11:00:00 24.7 14 Nordeste 22 Nordeste 0 1014.4 2 68
2019-09-20 10:00:00 24.4 19 Nordeste 28 Norte 0 1013.8 1.6 68
2019-09-20 09:00:00 23.1 19 Norte 26 Nordeste 0 1013.1 1.2 73
2019-09-20 08:00:00 22 17 Norte 26 Norte 0 1012.4 0.4 75
2019-09-20 07:00:00 22 18 Norte 32 Norte 0 1012.2 -0.3 76
2019-09-20 06:00:00 21.7 22 Norte 28 Norte 0 1011.9 -1.1 78
2019-09-20 05:00:00 21.4 21 Norte 28 Norte 0 1012 -1.5 80
2019-09-20 04:00:00 22.1 21 Norte 26 Norte 0 1012.5 -1.2 79
2019-09-20 03:00:00 22.3 20 Norte 32 Norte 0 1013 -0.8 78
2019-09-20 02:00:00 22.3 19 Norte 24 Norte 0 1013.5 -0.4 81
2019-09-20 01:00:00 22.1 15 Norte 26 Norte 0 1013.7 0.1 80
2019-09-20 00:00:00 22.2 20 Norte 30 Norte 0 1013.8 1 79
2019-09-19 23:00:00 22.5 21 Norte 32 Norte 0 1013.9 1.5 78
2019-09-19 22:00:00 23.1 25 Norte 32 Norte 0 1013.6 1 77
2019-09-19 21:00:00 23.1 25 Nordeste 35 Nordeste 0 1012.8 0.3 83
2019-09-19 20:00:00 23.3 24 Norte 32 Norte 0 1012.4 -0.2 78
2019-09-19 19:00:00 24.2 24 Norte 32 Norte 0 1012.6 -0.2 75
2019-09-19 18:00:00 24.7 23 Nordeste 30 Nordeste 0 1012.5 -0.5 72
2019-09-19 17:00:00 25.5 26 Nordeste 33 Nordeste 0 1012.6 -0.5 68
2019-09-19 16:00:00 25.9 21 Nordeste 32 Nordeste 0 1012.8 -0.7 66
2019-09-19 15:00:00 26.1 24 Nordeste 33 Nordeste 0 1013 -0.8 66
2019-09-19 14:00:00 25.6 26 Nordeste 35 Nordeste 0 1013.1 -0.9 67
2019-09-19 13:00:00 25.5 27 Nordeste 33 Nordeste 0 1013.5 -0.2 68
2019-09-19 12:00:00 25 28 Nordeste 35 Nordeste 0 1013.8 0.5 68
2019-09-19 11:00:00 24.5 28 Norte 37 Norte 0 1014 1.2 69
2019-09-19 10:00:00 23.2 27 Norte 33 Norte 0 1013.7 1.1 74
2019-09-19 09:00:00 22.2 22 Norte 30 Norte 0 1013.3 0.7 79
2019-09-19 08:00:00 21.5 22 Norte 30 Norte 0 1012.8 0.5 82
2019-09-19 07:00:00 21.5 21 Norte 33 Norte 0 1012.6 0.2 80
2019-09-19 06:00:00 22 24 Norte 35 Norte 0 1012.6 -0.1 79
2019-09-19 05:00:00 22 26 Norte 39 Norte 0 1012.3 -1.1 79
2019-09-19 04:00:00 22.1 29 Nordeste 37 Nordeste 0 1012.4 -1.3 79
2019-09-19 03:00:00 22.2 27 Nordeste 37 Nordeste 0 1012.7 -1.2 80
2019-09-19 02:00:00 22 28 Nordeste 39 Nordeste 0 1013.4 -0.6 81
2019-09-19 01:00:00 22 30 Nordeste 39 Nordeste 0 1013.7 -0.1 83
2019-09-19 00:00:00 22.1 28 Nordeste 35 Nordeste 0 1013.9 0.6 83
2019-09-18 23:00:00 22.5 28 Nordeste 35 Nordeste 0 1014 0.9 84
2019-09-18 22:00:00 22.6 30 Nordeste 39 Nordeste 0 1013.8 1 84
2019-09-18 21:00:00 22.9 22 Norte 28 Norte 0 1013.3 0.4 82
2019-09-18 20:00:00 23.3 21 Nordeste 32 Nordeste 0 1013.1 0.3 80
2019-09-18 19:00:00 24.2 23 Nordeste 30 Nordeste 0 1012.8 -0.2 74
2019-09-18 18:00:00 24.9 22 Nordeste 28 Nordeste 0 1012.9 -0.4 69
2019-09-18 17:00:00 25.1 22 Nordeste 30 Nordeste 0 1012.8 -0.7 68
2019-09-18 16:00:00 25.5 20 Nordeste 30 Nordeste 0 1013 -0.8 67
2019-09-18 15:00:00 25.3 21 Nordeste 32 Nordeste 0 1013.3 -0.7 67
2019-09-18 14:00:00 25.6 26 Nordeste 33 Nordeste 0 1013.5 -0.2 66
2019-09-18 13:00:00 25.4 27 Nordeste 35 Nordeste 0 1013.8 0.1 67
2019-09-18 12:00:00 25 28 Nordeste 37 Nordeste 0 1014 0.8 68
2019-09-18 11:00:00 24.3 29 Norte 37 Norte 0 1013.7 0.9 68
2019-09-18 10:00:00 23.3 27 Nordeste 39 Norte 0 1013.7 1.1 74
2019-09-18 09:00:00 22.4 25 Nordeste 35 Nordeste 0 1013.2 1.1 77
2019-09-18 08:00:00 22 25 Nordeste 35 Norte 0 1012.8 0.8 79
2019-09-18 07:00:00 22 27 Nordeste 35 Norte 0 1012.6 0.4 79
2019-09-18 06:00:00 21.9 27 Nordeste 37 Norte 0 1012.1 -0.4 79
2019-09-18 05:00:00 21.8 29 Nordeste 39 Nordeste 0 1012 -0.9 80
2019-09-18 04:00:00 21.7 28 Nordeste 37 Nordeste 0 1012.2 -1 81
2019-09-18 03:00:00 21.8 26 Nordeste 32 Nordeste 0 1012.5 -1.3 82
2019-09-18 02:00:00 21.8 24 Nordeste 32 Nordeste 0 1012.9 -0.9 84
2019-09-18 01:00:00 22.1 24 Nordeste 32 Nordeste 0 1013.2 -0.3 84
2019-09-18 00:00:00 22.2 22 Nordeste 30 Nordeste 0 1013.8 0.6 84